Time;durP1;ratioP1;P1;durP2;ratioP2;P2;SDS_P1;SDS_P2;PMS_P1;PMS_P2;Temp;Humidity;BMP_temperature;BMP_pressure;BME280_temperature;BME280_humidity;BME280_pressure;Samples;Min_cycle;Max_cycle;Signal;HPM_P1;HPM_P2
2023/07/19 00:00:38;;;;;;;;;;;26.30;91.40;;;;;;5094180;28;19908;-45
2023/07/19 00:03:04;;;;;;;;;;;26.30;91.40;;;;;;5094018;28;20370;-48
2023/07/19 00:05:29;;;;;;;;;;;26.30;91.50;;;;;;5093308;28;20429;-45
2023/07/19 00:07:55;;;;;;;;;;;26.30;91.50;;;;;;5094434;28;19911;-47
2023/07/19 00:10:21;;;;;;;;;;;26.30;91.50;;;;;;5093780;28;19912;-46
2023/07/19 00:12:46;;;;;;;;;;;26.30;91.50;;;;;;5093852;28;19914;-44
2023/07/19 00:15:11;;;;;;;;;;;26.30;91.40;;;;;;5093370;28;19994;-47
2023/07/19 00:17:37;;;;;;;;;;;26.30;91.40;;;;;;5094055;28;19915;-46
2023/07/19 00:20:03;;;;;;;;;;;26.30;91.50;;;;;;5094000;28;19953;-46
2023/07/19 00:22:28;;;;;;;;;;;26.30;91.50;;;;;;5092905;28;20427;-45
2023/07/19 00:24:54;;;;;;;;;;;26.30;91.70;;;;;;5092999;28;19912;-45
2023/07/19 00:27:19;;;;;;;;;;;26.30;91.50;;;;;;5093653;28;19919;-46
2023/07/19 00:29:45;;;;;;;;;;;26.30;91.50;;;;;;5094212;28;19991;-47
2023/07/19 00:32:10;;;;;;;;;;;26.30;91.50;;;;;;5093927;28;19908;-44
2023/07/19 00:34:36;;;;;;;;;;;26.30;91.50;;;;;;5096271;28;19912;-47
2023/07/19 00:37:01;;;;;;;;;;;26.30;91.50;;;;;;5097789;28;19908;-44
2023/07/19 00:39:27;;;;;;;;;;;26.30;91.50;;;;;;5097773;28;19909;-43
2023/07/19 00:41:53;;;;;;;;;;;26.30;91.50;;;;;;5097708;28;19959;-44
2023/07/19 00:44:18;;;;;;;;;;;26.30;91.50;;;;;;5096437;28;19912;-45
2023/07/19 00:46:44;;;;;;;;;;;26.30;91.50;;;;;;5097639;28;19920;-44
2023/07/19 00:49:10;;;;;;;;;;;26.30;91.60;;;;;;5097289;28;20010;-43
2023/07/19 00:51:36;;;;;;;;;;;26.30;91.60;;;;;;5097528;28;19947;-47
2023/07/19 00:54:02;;;;;;;;;;;26.30;91.60;;;;;;5096566;28;19957;-44
2023/07/19 00:56:29;;;;;;;;;;;26.30;91.60;;;;;;5097165;28;19908;-44
2023/07/19 00:58:54;;;;;;;;;;;26.30;91.60;;;;;;5097134;28;19916;-48
2023/07/19 01:01:20;;;;;;;;;;;26.30;91.60;;;;;;5097349;28;20353;-44
2023/07/19 01:03:46;;;;;;;;;;;26.30;91.60;;;;;;5096130;28;20308;-45
2023/07/19 01:06:11;;;;;;;;;;;26.30;91.60;;;;;;5097269;28;19915;-45
2023/07/19 01:08:37;;;;;;;;;;;26.30;91.60;;;;;;5097165;28;19908;-45
2023/07/19 01:11:02;;;;;;;;;;;26.30;91.60;;;;;;5097211;28;20363;-46
2023/07/19 01:13:28;;;;;;;;;;;26.30;91.60;;;;;;5097155;28;19912;-44
2023/07/19 01:15:53;;;;;;;;;;;26.30;91.60;;;;;;5096204;28;19912;-43
2023/07/19 01:18:19;;;;;;;;;;;26.30;91.60;;;;;;5096865;28;19922;-43
2023/07/19 01:20:45;;;;;;;;;;;26.30;91.60;;;;;;5096484;28;19912;-46
2023/07/19 01:23:10;;;;;;;;;;;26.30;91.60;;;;;;5095590;28;19930;-48
2023/07/19 01:25:36;;;;;;;;;;;26.30;91.60;;;;;;5097047;28;19908;-45
2023/07/19 01:28:02;;;;;;;;;;;26.30;91.60;;;;;;5096631;28;20378;-45
2023/07/19 01:30:28;;;;;;;;;;;26.30;91.60;;;;;;5096619;28;19998;-45
2023/07/19 01:32:54;;;;;;;;;;;26.30;91.60;;;;;;5095513;28;19919;-46
2023/07/19 01:35:19;;;;;;;;;;;26.30;91.60;;;;;;5096752;28;20460;-47
2023/07/19 01:37:45;;;;;;;;;;;26.30;91.60;;;;;;5096441;28;19915;-45
2023/07/19 01:40:11;;;;;;;;;;;26.30;91.60;;;;;;5096630;28;19908;-43
2023/07/19 01:42:37;;;;;;;;;;;26.30;91.60;;;;;;5095613;28;20417;-46
2023/07/19 01:45:03;;;;;;;;;;;26.30;91.60;;;;;;5095257;28;19920;-45
2023/07/19 01:47:28;;;;;;;;;;;26.30;91.60;;;;;;5096438;28;19958;-45
2023/07/19 01:49:53;;;;;;;;;;;26.30;91.60;;;;;;5096766;28;19908;-44
2023/07/19 01:52:19;;;;;;;;;;;26.30;91.60;;;;;;5077383;28;20168;-45
2023/07/19 01:54:44;;;;;;;;;;;26.30;91.60;;;;;;5096478;28;19958;-47
2023/07/19 01:57:10;;;;;;;;;;;26.30;91.60;;;;;;5096699;28;20005;-46
2023/07/19 01:59:36;;;;;;;;;;;26.30;91.60;;;;;;5096686;28;19912;-46
2023/07/19 02:02:02;;;;;;;;;;;26.30;91.60;;;;;;5096188;28;19924;-46
2023/07/19 02:04:27;;;;;;;;;;;26.30;91.60;;;;;;5095176;28;20278;-45
2023/07/19 02:06:53;;;;;;;;;;;26.30;91.60;;;;;;5095936;28;19915;-44
2023/07/19 02:09:18;;;;;;;;;;;26.30;91.60;;;;;;5096208;28;19908;-48
2023/07/19 02:11:44;;;;;;;;;;;26.30;91.60;;;;;;5096079;28;19951;-44
2023/07/19 02:14:09;;;;;;;;;;;26.20;91.60;;;;;;5094977;28;19920;-44
2023/07/19 02:16:35;;;;;;;;;;;26.20;91.60;;;;;;5095985;28;19915;-44
2023/07/19 02:19:01;;;;;;;;;;;26.30;91.90;;;;;;5095897;28;19908;-44
2023/07/19 02:21:27;;;;;;;;;;;26.30;91.60;;;;;;5092818;28;20382;-49
2023/07/19 02:23:52;;;;;;;;;;;26.30;91.60;;;;;;5094181;28;19940;-46
2023/07/19 02:26:18;;;;;;;;;;;26.20;91.60;;;;;;5095499;28;19908;-44
2023/07/19 02:28:43;;;;;;;;;;;26.30;91.70;;;;;;5076654;28;19935;-43
2023/07/19 02:31:09;;;;;;;;;;;26.20;86.00;;;;;;5095681;28;19995;-45
2023/07/19 02:33:34;;;;;;;;;;;26.10;88.00;;;;;;5095610;28;19908;-43
2023/07/19 02:36:00;;;;;;;;;;;26.10;90.40;;;;;;5095579;28;19912;-44
2023/07/19 02:38:25;;;;;;;;;;;26.10;90.90;;;;;;5094699;28;19912;-43
2023/07/19 02:40:57;;;;;;;;;;;26.10;91.10;;;;;;5095530;28;19908;-43
2023/07/19 02:43:22;;;;;;;;;;;26.20;91.10;;;;;;5095227;28;20282;-43
2023/07/19 02:45:48;;;;;;;;;;;26.20;91.20;;;;;;5095324;28;19931;-43
2023/07/19 02:48:13;;;;;;;;;;;26.20;91.20;;;;;;5094252;28;19912;-43
2023/07/19 02:50:43;;;;;;;;;;;26.20;91.20;;;;;;5095347;28;19969;-42
2023/07/19 02:53:08;;;;;;;;;;;26.20;91.20;;;;;;5095047;28;19915;-44
2023/07/19 02:55:34;;;;;;;;;;;26.20;91.20;;;;;;5077038;28;19908;-43
2023/07/19 02:57:59;;;;;;;;;;;26.20;91.30;;;;;;5094455;28;19950;-43
2023/07/19 03:00:25;;;;;;;;;;;26.20;91.30;;;;;;5094856;28;20330;-45
2023/07/19 03:02:53;;;;;;;;;;;26.20;91.30;;;;;;5094788;28;19920;-45
2023/07/19 03:05:20;;;;;;;;;;;26.20;91.30;;;;;;5094685;28;19930;-44
2023/07/19 03:07:45;;;;;;;;;;;26.20;91.30;;;;;;5095203;28;19908;-46
2023/07/19 03:10:11;;;;;;;;;;;26.20;91.30;;;;;;5093660;28;20049;-45
2023/07/19 03:12:36;;;;;;;;;;;26.20;91.30;;;;;;5094820;28;19909;-44
2023/07/19 03:15:02;;;;;;;;;;;26.20;91.30;;;;;;5094507;28;19908;-48
2023/07/19 03:17:27;;;;;;;;;;;26.20;91.30;;;;;;5094475;28;19952;-46
2023/07/19 03:19:53;;;;;;;;;;;26.20;91.30;;;;;;5093725;28;19919;-45
2023/07/19 03:22:18;;;;;;;;;;;26.20;91.30;;;;;;5094586;28;19956;-47
2023/07/19 03:24:44;;;;;;;;;;;26.20;91.40;;;;;;5094590;28;19950;-47
2023/07/19 03:27:09;;;;;;;;;;;26.20;91.40;;;;;;5093505;28;19981;-43
2023/07/19 03:29:34;;;;;;;;;;;26.20;91.40;;;;;;5094554;28;19908;-46
2023/07/19 03:32:00;;;;;;;;;;;26.20;91.40;;;;;;5094822;28;19919;-45
2023/07/19 03:34:26;;;;;;;;;;;26.20;91.40;;;;;;5094432;28;19923;-46
2023/07/19 03:36:51;;;;;;;;;;;26.20;91.40;;;;;;5093177;28;19949;-44
2023/07/19 03:39:16;;;;;;;;;;;26.20;91.40;;;;;;5094170;28;20359;-43
2023/07/19 03:41:42;;;;;;;;;;;26.20;91.40;;;;;;5094097;28;19923;-44
2023/07/19 03:44:07;;;;;;;;;;;26.20;91.40;;;;;;5094418;28;19928;-46
2023/07/19 03:46:33;;;;;;;;;;;26.20;91.40;;;;;;5075905;28;20232;-48
2023/07/19 03:48:59;;;;;;;;;;;26.20;91.40;;;;;;5092989;28;20002;-46
2023/07/19 03:51:24;;;;;;;;;;;26.20;91.50;;;;;;5093901;28;19908;-44
2023/07/19 03:53:50;;;;;;;;;;;26.20;91.50;;;;;;5094224;28;19912;-43
2023/07/19 03:56:15;;;;;;;;;;;26.20;91.50;;;;;;5094182;28;19961;-44
2023/07/19 03:58:45;;;;;;;;;;;26.20;91.50;;;;;;5093494;28;20381;-46
2023/07/19 04:01:10;;;;;;;;;;;26.20;91.50;;;;;;5093747;28;19918;-46
2023/07/19 04:03:36;;;;;;;;;;;26.20;91.50;;;;;;5093796;28;19941;-45
2023/07/19 04:06:01;;;;;;;;;;;26.20;91.50;;;;;;5094110;28;19908;-45
2023/07/19 04:08:27;;;;;;;;;;;26.20;91.50;;;;;;5096338;28;19912;-44
2023/07/19 04:10:52;;;;;;;;;;;26.20;91.50;;;;;;5100482;28;19914;-47
2023/07/19 04:13:18;;;;;;;;;;;26.20;91.70;;;;;;5100510;28;19908;-44
2023/07/19 04:15:43;;;;;;;;;;;26.20;91.50;;;;;;5100672;28;19954;-47
2023/07/19 04:18:09;;;;;;;;;;;26.20;91.50;;;;;;5099564;28;20074;-46
2023/07/19 04:20:36;;;;;;;;;;;26.20;91.50;;;;;;5100283;28;20337;-45
2023/07/19 04:23:02;;;;;;;;;;;26.20;91.50;;;;;;5099328;28;19985;-46
2023/07/19 04:25:28;;;;;;;;;;;26.20;91.50;;;;;;5100390;28;19916;-45
2023/07/19 04:27:53;;;;;;;;;;;26.20;91.50;;;;;;5100286;28;19908;-43
2023/07/19 04:30:19;;;;;;;;;;;26.20;91.50;;;;;;5099388;28;20004;-45
2023/07/19 04:32:44;;;;;;;;;;;26.20;91.50;;;;;;5100465;28;19912;-44
2023/07/19 04:35:10;;;;;;;;;;;26.20;91.50;;;;;;5100683;28;19912;-43
2023/07/19 04:37:38;;;;;;;;;;;26.20;91.50;;;;;;5100436;28;19938;-45
2023/07/19 04:40:05;;;;;;;;;;;26.20;91.60;;;;;;5099736;28;20282;-47
2023/07/19 04:42:31;;;;;;;;;;;26.20;91.60;;;;;;5100348;28;19916;-45
2023/07/19 04:44:56;;;;;;;;;;;26.20;91.60;;;;;;5099919;28;19935;-48
2023/07/19 04:47:22;;;;;;;;;;;26.20;91.60;;;;;;5099908;28;19943;-46
2023/07/19 04:49:47;;;;;;;;;;;26.20;91.60;;;;;;5098967;28;20007;-48
2023/07/19 04:52:13;;;;;;;;;;;26.20;91.60;;;;;;5100204;28;19966;-45
2023/07/19 04:54:38;;;;;;;;;;;26.20;91.90;;;;;;5099934;28;19912;-46
2023/07/19 04:57:06;;;;;;;;;;;26.20;91.60;;;;;;5099358;28;20385;-45
2023/07/19 04:59:32;;;;;;;;;;;26.20;91.70;;;;;;5098957;28;20343;-48
2023/07/19 05:01:57;;;;;;;;;;;26.20;91.70;;;;;;5098389;28;19916;-45
2023/07/19 05:04:22;;;;;;;;;;;26.20;91.70;;;;;;5099913;28;19955;-45
2023/07/19 05:06:49;;;;;;;;;;;26.20;91.70;;;;;;5098856;28;19918;-44
2023/07/19 05:09:15;;;;;;;;;;;26.20;91.70;;;;;;5098959;28;19916;-45
2023/07/19 05:11:41;;;;;;;;;;;26.20;91.70;;;;;;5100274;28;19908;-45
2023/07/19 05:14:06;;;;;;;;;;;26.20;91.70;;;;;;5099761;28;19950;-44
2023/07/19 05:16:35;;;;;;;;;;;26.20;91.70;;;;;;5080547;28;19908;-45
2023/07/19 05:19:01;;;;;;;;;;;26.20;91.70;;;;;;5097664;28;19969;-46
2023/07/19 05:21:27;;;;;;;;;;;26.20;91.70;;;;;;5077520;28;19912;-45
2023/07/19 05:23:53;;;;;;;;;;;26.20;91.70;;;;;;5096530;28;20413;-47
2023/07/19 05:26:18;;;;;;;;;;;26.20;91.70;;;;;;5095142;28;20003;-45
2023/07/19 05:28:45;;;;;;;;;;;26.20;91.70;;;;;;5099104;28;20271;-46
2023/07/19 05:31:10;;;;;;;;;;;26.20;91.60;;;;;;5111120;28;19919;-46
2023/07/19 05:33:36;;;;;;;;;;;26.20;91.70;;;;;;5093822;28;19986;-47
2023/07/19 05:36:01;;;;;;;;;;;26.20;91.70;;;;;;5088522;28;19960;-42
2023/07/19 05:38:27;;;;;;;;;;;26.20;91.70;;;;;;5116627;28;19914;-47
2023/07/19 05:40:58;;;;;;;;;;;26.20;91.70;;;;;;5114669;28;20362;-44
2023/07/19 05:43:24;;;;;;;;;;;26.20;91.70;;;;;;5115074;28;19916;-46
2023/07/19 05:45:49;;;;;;;;;;;26.20;91.70;;;;;;5106153;28;20422;-43
2023/07/19 05:48:15;;;;;;;;;;;26.20;91.70;;;;;;5103726;28;19912;-49
2023/07/19 05:50:40;;;;;;;;;;;26.20;92.00;;;;;;5112340;28;19955;-42
2023/07/19 05:53:06;;;;;;;;;;;26.20;91.70;;;;;;5114551;28;20312;-45
2023/07/19 05:55:31;;;;;;;;;;;26.20;91.70;;;;;;5098597;28;19908;-45
2023/07/19 05:57:56;;;;;;;;;;;26.20;91.70;;;;;;5106396;28;20398;-46
2023/07/19 06:00:28;;;;;;;;;;;26.20;91.70;;;;;;5086723;28;19908;-45
2023/07/19 06:02:56;;;;;;;;;;;26.20;91.70;;;;;;5107464;28;19959;-44
2023/07/19 06:05:25;;;;;;;;;;;26.10;88.40;;;;;;5114384;28;19947;-46
2023/07/19 06:07:50;;;;;;;;;;;26.10;88.50;;;;;;5109724;28;19916;-46
2023/07/19 06:10:16;;;;;;;;;;;26.10;89.10;;;;;;5106661;28;19908;-46
2023/07/19 06:12:44;;;;;;;;;;;26.10;89.80;;;;;;5094496;28;20312;-47
2023/07/19 06:15:10;;;;;;;;;;;26.10;90.20;;;;;;5096253;28;19912;-48
2023/07/19 06:17:36;;;;;;;;;;;26.10;90.40;;;;;;5101450;28;20360;-43
2023/07/19 06:20:04;;;;;;;;;;;26.10;90.70;;;;;;5099422;28;20002;-44
2023/07/19 06:22:29;;;;;;;;;;;26.10;90.80;;;;;;5102353;28;20284;-44
2023/07/19 06:24:55;;;;;;;;;;;26.10;90.90;;;;;;5077248;28;19915;-45
2023/07/19 06:27:21;;;;;;;;;;;26.10;90.90;;;;;;5095213;28;19908;-49
2023/07/19 06:29:46;;;;;;;;;;;26.20;91.00;;;;;;5094568;28;19912;-43
2023/07/19 06:32:12;;;;;;;;;;;26.20;91.10;;;;;;5090770;28;19912;-47
2023/07/19 06:34:37;;;;;;;;;;;26.20;91.10;;;;;;5095007;28;19908;-44
2023/07/19 06:37:03;;;;;;;;;;;26.20;91.10;;;;;;5096363;28;19961;-45
2023/07/19 06:39:29;;;;;;;;;;;26.20;91.10;;;;;;5114186;28;19976;-46
2023/07/19 06:41:54;;;;;;;;;;;26.10;88.50;;;;;;5106689;28;20386;-42
2023/07/19 06:44:20;;;;;;;;;;;26.10;87.80;;;;;;5093813;28;19916;-45
2023/07/19 06:46:45;;;;;;;;;;;26.10;87.60;;;;;;5114096;28;19911;-48
2023/07/19 06:49:11;;;;;;;;;;;26.00;87.60;;;;;;5115228;28;20374;-47
2023/07/19 06:51:36;;;;;;;;;;;26.10;87.70;;;;;;5110939;28;19919;-46
2023/07/19 06:54:02;;;;;;;;;;;26.00;87.80;;;;;;5100062;28;19919;-46
2023/07/19 06:56:27;;;;;;;;;;;26.00;87.90;;;;;;5094764;28;19911;-44
2023/07/19 06:58:53;;;;;;;;;;;26.00;88.10;;;;;;5103275;28;19916;-44
2023/07/19 07:01:18;;;;;;;;;;;26.00;88.10;;;;;;5093940;28;19912;-43
2023/07/19 07:03:44;;;;;;;;;;;26.00;88.10;;;;;;5092070;28;19928;-45
2023/07/19 07:06:09;;;;;;;;;;;26.00;88.10;;;;;;5106833;28;19999;-47
2023/07/19 07:08:35;;;;;;;;;;;26.00;88.40;;;;;;5103322;28;19912;-48
2023/07/19 07:11:01;;;;;;;;;;;26.00;89.00;;;;;;5094023;28;19919;-47
2023/07/19 07:13:27;;;;;;;;;;;26.00;89.30;;;;;;5098576;28;19912;-47
2023/07/19 07:15:52;;;;;;;;;;;26.00;89.50;;;;;;5112843;28;19968;-46
2023/07/19 07:18:18;;;;;;;;;;;26.00;90.00;;;;;;5092682;28;19912;-43
2023/07/19 07:20:43;;;;;;;;;;;26.10;90.10;;;;;;5094305;28;19915;-45
2023/07/19 07:23:09;;;;;;;;;;;26.10;90.10;;;;;;5093316;28;20321;-50
2023/07/19 07:25:35;;;;;;;;;;;26.10;90.10;;;;;;5103766;28;19998;-47
2023/07/19 07:28:01;;;;;;;;;;;26.10;90.10;;;;;;5095036;28;19919;-45
2023/07/19 07:30:26;;;;;;;;;;;26.10;90.10;;;;;;5094381;28;20002;-48
2023/07/19 07:32:52;;;;;;;;;;;26.10;90.10;;;;;;5093632;28;20001;-45
2023/07/19 07:35:18;;;;;;;;;;;26.10;90.20;;;;;;5094953;28;19923;-46
2023/07/19 07:37:43;;;;;;;;;;;26.10;90.20;;;;;;5099358;28;19959;-49
2023/07/19 07:40:10;;;;;;;;;;;26.10;90.20;;;;;;5102671;28;19993;-46
2023/07/19 07:42:39;;;;;;;;;;;26.10;90.20;;;;;;5098952;28;19977;-44
2023/07/19 07:45:05;;;;;;;;;;;26.10;90.30;;;;;;5104198;28;19996;-45
2023/07/19 07:47:31;;;;;;;;;;;26.10;90.40;;;;;;5096170;28;20359;-46
2023/07/19 07:49:56;;;;;;;;;;;26.10;90.20;;;;;;5100121;28;19926;-49
2023/07/19 07:52:22;;;;;;;;;;;26.10;90.00;;;;;;5093184;28;19997;-52
2023/07/19 07:54:48;;;;;;;;;;;26.10;90.10;;;;;;5097684;28;20014;-49
2023/07/19 07:57:14;;;;;;;;;;;26.10;90.10;;;;;;5092842;28;19912;-46
2023/07/19 07:59:40;;;;;;;;;;;26.10;90.20;;;;;;5093966;28;19916;-47
2023/07/19 08:02:06;;;;;;;;;;;26.10;90.20;;;;;;5093349;28;20373;-47
2023/07/19 08:04:31;;;;;;;;;;;26.10;90.30;;;;;;5093509;28;19951;-48
2023/07/19 08:06:57;;;;;;;;;;;26.10;90.40;;;;;;5093028;28;19915;-45
2023/07/19 08:09:23;;;;;;;;;;;26.10;90.40;;;;;;5093673;28;19913;-46
2023/07/19 08:11:48;;;;;;;;;;;26.10;90.50;;;;;;5093631;28;19908;-50
2023/07/19 08:14:14;;;;;;;;;;;26.10;90.50;;;;;;5093669;28;20354;-49
2023/07/19 08:16:39;;;;;;;;;;;26.10;90.50;;;;;;5092512;28;19912;-45
2023/07/19 08:19:05;;;;;;;;;;;26.10;90.50;;;;;;5093536;28;19920;-48
2023/07/19 08:21:30;;;;;;;;;;;26.10;90.50;;;;;;5093552;28;19912;-45
2023/07/19 08:23:56;;;;;;;;;;;26.10;90.60;;;;;;5093674;28;19919;-48
2023/07/19 08:26:22;;;;;;;;;;;26.10;90.60;;;;;;5092716;28;20371;-49
2023/07/19 08:28:47;;;;;;;;;;;26.10;90.60;;;;;;5093882;28;19912;-48
2023/07/19 08:31:14;;;;;;;;;;;26.10;90.60;;;;;;5093455;28;19908;-45
2023/07/19 08:33:40;;;;;;;;;;;26.10;90.60;;;;;;5093527;28;20000;-48
2023/07/19 08:36:05;;;;;;;;;;;26.10;90.60;;;;;;5097086;28;19947;-45
2023/07/19 08:38:31;;;;;;;;;;;26.10;90.60;;;;;;5094489;28;19995;-43
2023/07/19 08:41:05;;;;;;;;;;;26.10;90.60;;;;;;5093230;28;19923;-48
2023/07/19 08:43:31;;;;;;;;;;;26.10;90.60;;;;;;5093455;28;19920;-48
2023/07/19 08:45:57;;;;;;;;;;;26.10;90.60;;;;;;5093784;28;19943;-43
2023/07/19 08:48:22;;;;;;;;;;;26.10;90.70;;;;;;5091559;28;20367;-48
2023/07/19 08:50:53;;;;;;;;;;;26.10;90.70;;;;;;5093479;28;20308;-45
2023/07/19 08:53:18;;;;;;;;;;;26.10;90.70;;;;;;5093196;28;20339;-45
2023/07/19 08:55:44;;;;;;;;;;;26.10;90.70;;;;;;5096726;28;19969;-46
2023/07/19 08:58:10;;;;;;;;;;;26.10;90.70;;;;;;5095764;28;19931;-45
2023/07/19 09:00:35;;;;;;;;;;;26.10;90.70;;;;;;5097179;28;19949;-48
2023/07/19 09:03:00;;;;;;;;;;;26.10;90.70;;;;;;5097149;28;19923;-44
2023/07/19 09:05:32;;;;;;;;;;;26.10;90.70;;;;;;5095093;28;20372;-43
2023/07/19 09:08:02;;;;;;;;;;;26.10;90.80;;;;;;5094677;28;19908;-44
2023/07/19 09:10:28;;;;;;;;;;;26.10;90.80;;;;;;5117292;28;19947;-41
2023/07/19 09:12:54;;;;;;;;;;;26.10;90.70;;;;;;5105824;28;19912;-41
2023/07/19 09:15:20;;;;;;;;;;;26.10;90.70;;;;;;5100054;28;19912;-43
2023/07/19 09:17:47;;;;;;;;;;;26.10;90.70;;;;;;5103803;28;19908;-45
2023/07/19 09:20:13;;;;;;;;;;;26.10;90.80;;;;;;5095931;28;19919;-45
2023/07/19 09:22:38;;;;;;;;;;;26.10;90.80;;;;;;5094186;28;19924;-42
2023/07/19 09:25:05;;;;;;;;;;;26.10;90.80;;;;;;5105792;28;19912;-46
2023/07/19 09:27:32;;;;;;;;;;;26.10;90.90;;;;;;5107044;28;19916;-45
2023/07/19 09:29:57;;;;;;;;;;;26.10;90.90;;;;;;5075897;28;20355;-44
2023/07/19 09:32:24;;;;;;;;;;;26.10;90.90;;;;;;5083470;28;20011;-49
2023/07/19 09:34:52;;;;;;;;;;;26.10;90.90;;;;;;5094258;28;19934;-47
2023/07/19 09:37:20;;;;;;;;;;;26.10;90.90;;;;;;5096321;28;19908;-48
2023/07/19 09:39:45;;;;;;;;;;;26.10;90.90;;;;;;5096662;28;19915;-48
2023/07/19 09:42:13;;;;;;;;;;;26.10;91.00;;;;;;5096108;28;20299;-47
2023/07/19 09:44:39;;;;;;;;;;;26.10;90.90;;;;;;5102447;28;19923;-45
2023/07/19 09:47:08;;;;;;;;;;;26.10;90.90;;;;;;5104588;28;19912;-50
2023/07/19 09:49:34;;;;;;;;;;;26.10;90.80;;;;;;5095313;28;19912;-47
2023/07/19 09:52:01;;;;;;;;;;;26.10;91.10;;;;;;5093052;28;19999;-48
2023/07/19 09:54:27;;;;;;;;;;;26.10;90.90;;;;;;5095445;28;19908;-49
2023/07/19 09:56:52;;;;;;;;;;;26.10;90.90;;;;;;5077920;28;19916;-46
2023/07/19 09:59:20;;;;;;;;;;;26.10;90.90;;;;;;5096196;28;19908;-47
2023/07/19 10:01:45;;;;;;;;;;;26.10;90.90;;;;;;5096051;28;19924;-50
2023/07/19 10:04:23;;;;;;;;;;;26.10;90.90;;;;;;5095099;28;20278;-49
2023/07/19 10:06:50;;;;;;;;;;;26.10;90.90;;;;;;5094001;28;19912;-48
2023/07/19 10:09:21;;;;;;;;;;;26.10;90.90;;;;;;5095736;28;19915;-44
2023/07/19 10:11:48;;;;;;;;;;;26.10;90.90;;;;;;5095892;28;19908;-48
2023/07/19 10:14:19;;;;;;;;;;;26.10;90.90;;;;;;5095702;28;19908;-47
2023/07/19 10:16:48;;;;;;;;;;;26.10;90.90;;;;;;5093507;28;19919;-45
2023/07/19 10:19:14;;;;;;;;;;;26.10;90.90;;;;;;5092591;28;19927;-46
2023/07/19 10:21:58;;;;;;;;;;;26.10;90.90;;;;;;5094324;28;19927;-51
2023/07/19 10:24:23;;;;;;;;;;;26.10;90.90;;;;;;5095920;28;19930;-46
2023/07/19 10:26:48;;;;;;;;;;;26.10;90.90;;;;;;5095142;28;20278;-46
2023/07/19 10:29:16;;;;;;;;;;;26.10;90.90;;;;;;5095512;28;19908;-46
2023/07/19 10:31:42;;;;;;;;;;;26.10;90.90;;;;;;5094171;28;20007;-46
2023/07/19 10:34:07;;;;;;;;;;;26.10;90.90;;;;;;5095521;28;19982;-46
2023/07/19 10:36:33;;;;;;;;;;;26.10;90.90;;;;;;5095097;28;20351;-46
2023/07/19 10:38:58;;;;;;;;;;;26.10;90.90;;;;;;5095419;28;19956;-48
2023/07/19 10:41:24;;;;;;;;;;;26.10;90.90;;;;;;5094080;28;19912;-49
2023/07/19 10:43:49;;;;;;;;;;;26.10;90.90;;;;;;5095015;28;19908;-49
2023/07/19 10:46:15;;;;;;;;;;;26.10;90.90;;;;;;5094581;28;20007;-47
2023/07/19 10:48:40;;;;;;;;;;;26.10;90.90;;;;;;5094524;28;19912;-47
2023/07/19 10:51:09;;;;;;;;;;;26.10;90.90;;;;;;5093837;28;19919;-49
2023/07/19 10:53:41;;;;;;;;;;;26.10;90.90;;;;;;5094797;28;19961;-47
2023/07/19 10:56:07;;;;;;;;;;;26.10;90.90;;;;;;5094742;28;20011;-47
2023/07/19 10:58:32;;;;;;;;;;;26.10;90.90;;;;;;5094881;28;20388;-45
2023/07/19 11:00:58;;;;;;;;;;;26.10;90.90;;;;;;5093897;28;19912;-47
2023/07/19 11:03:26;;;;;;;;;;;26.10;90.90;;;;;;5093381;28;19920;-48
2023/07/19 11:05:52;;;;;;;;;;;26.10;90.90;;;;;;5092212;28;19958;-46
2023/07/19 11:08:21;;;;;;;;;;;26.10;90.90;;;;;;5094292;28;20260;-49
2023/07/19 11:10:48;;;;;;;;;;;26.10;90.90;;;;;;5093995;28;20391;-47
2023/07/19 11:13:14;;;;;;;;;;;26.10;90.90;;;;;;5094315;28;19951;-48
2023/07/19 11:15:46;;;;;;;;;;;26.10;90.90;;;;;;5093081;28;19912;-46
2023/07/19 11:18:11;;;;;;;;;;;26.10;90.90;;;;;;5093589;28;19915;-49
2023/07/19 11:20:39;;;;;;;;;;;26.10;90.90;;;;;;5094475;28;19988;-47
2023/07/19 11:23:05;;;;;;;;;;;26.10;90.90;;;;;;5094053;28;19956;-47
2023/07/19 11:25:31;;;;;;;;;;;26.10;90.90;;;;;;5093254;28;19912;-49
2023/07/19 11:27:56;;;;;;;;;;;26.10;90.90;;;;;;5093515;28;19912;-46
2023/07/19 11:30:23;;;;;;;;;;;26.10;90.90;;;;;;5094257;28;19908;-47
2023/07/19 11:33:05;;;;;;;;;;;26.10;90.90;;;;;;5094073;28;20286;-46
2023/07/19 11:35:30;;;;;;;;;;;26.10;90.90;;;;;;5093992;28;19919;-47
2023/07/19 11:37:56;;;;;;;;;;;26.10;90.90;;;;;;5092137;28;19916;-47
2023/07/19 11:40:23;;;;;;;;;;;26.10;90.90;;;;;;5093600;28;19914;-50
2023/07/19 11:42:50;;;;;;;;;;;26.10;90.90;;;;;;5093810;28;19939;-46
2023/07/19 11:45:16;;;;;;;;;;;26.10;90.90;;;;;;5093981;28;19931;-49
2023/07/19 11:47:43;;;;;;;;;;;26.10;90.90;;;;;;5093155;28;19955;-46
2023/07/19 11:50:09;;;;;;;;;;;26.10;90.90;;;;;;5093768;28;20358;-49
2023/07/19 11:52:48;;;;;;;;;;;26.10;90.80;;;;;;5093521;28;19954;-49
2023/07/19 11:55:17;;;;;;;;;;;26.10;90.90;;;;;;5093948;28;19908;-47
2023/07/19 11:57:43;;;;;;;;;;;26.10;90.80;;;;;;5092400;28;19912;-49
2023/07/19 12:00:10;;;;;;;;;;;26.10;90.80;;;;;;5094287;28;20415;-48
2023/07/19 12:02:36;;;;;;;;;;;26.10;90.80;;;;;;5093871;28;19916;-51
2023/07/19 12:05:04;;;;;;;;;;;26.10;90.80;;;;;;5093870;28;19991;-47
2023/07/19 12:07:30;;;;;;;;;;;26.10;90.80;;;;;;5092527;28;19935;-50
2023/07/19 12:09:56;;;;;;;;;;;26.10;90.80;;;;;;5092018;28;19916;-48
2023/07/19 12:12:21;;;;;;;;;;;26.10;90.80;;;;;;5093967;28;19912;-48
2023/07/19 12:14:47;;;;;;;;;;;26.10;90.80;;;;;;5093491;28;19908;-47
2023/07/19 12:17:12;;;;;;;;;;;26.10;90.80;;;;;;5093601;28;19908;-46
2023/07/19 12:19:37;;;;;;;;;;;26.10;90.80;;;;;;5091944;28;19935;-47
2023/07/19 12:22:04;;;;;;;;;;;26.10;90.80;;;;;;5093365;28;19916;-50
2023/07/19 12:24:29;;;;;;;;;;;26.10;90.80;;;;;;5093542;28;19912;-45
2023/07/19 12:26:55;;;;;;;;;;;26.10;90.80;;;;;;5093671;28;19908;-50
2023/07/19 12:29:20;;;;;;;;;;;26.10;90.80;;;;;;5076627;28;19969;-47
2023/07/19 12:31:46;;;;;;;;;;;26.10;90.80;;;;;;5100183;28;19913;-44
2023/07/19 12:34:11;;;;;;;;;;;26.10;90.80;;;;;;5098788;28;19938;-49
2023/07/19 12:36:37;;;;;;;;;;;26.10;90.80;;;;;;5096330;28;19919;-50
2023/07/19 12:39:02;;;;;;;;;;;26.10;90.80;;;;;;5097338;28;20007;-49
2023/07/19 12:41:28;;;;;;;;;;;26.10;90.80;;;;;;5096633;28;20359;-45
2023/07/19 12:43:54;;;;;;;;;;;26.10;90.80;;;;;;5079251;28;19960;-48
2023/07/19 12:46:21;;;;;;;;;;;26.10;90.80;;;;;;5097625;28;19924;-45
2023/07/19 12:48:48;;;;;;;;;;;26.10;90.80;;;;;;5097240;28;20011;-47
2023/07/19 12:51:14;;;;;;;;;;;26.10;90.80;;;;;;5096179;28;19968;-50
2023/07/19 12:53:39;;;;;;;;;;;26.10;90.80;;;;;;5097102;28;20002;-48
2023/07/19 12:56:05;;;;;;;;;;;26.10;90.80;;;;;;5097394;28;19934;-47
2023/07/19 12:58:30;;;;;;;;;;;26.10;90.80;;;;;;5098331;28;20375;-46
2023/07/19 13:00:56;;;;;;;;;;;26.10;90.80;;;;;;5096326;28;19915;-49
2023/07/19 13:03:21;;;;;;;;;;;26.10;91.00;;;;;;5098341;28;19920;-46
2023/07/19 13:05:48;;;;;;;;;;;26.10;90.80;;;;;;5096242;28;20370;-48
2023/07/19 13:08:14;;;;;;;;;;;26.10;90.80;;;;;;5100230;28;19908;-51
2023/07/19 13:10:39;;;;;;;;;;;26.10;90.80;;;;;;5095582;28;19912;-48
2023/07/19 13:13:05;;;;;;;;;;;26.10;90.80;;;;;;5096732;28;20385;-50
2023/07/19 13:15:30;;;;;;;;;;;26.10;90.80;;;;;;5096879;28;20017;-46
2023/07/19 13:17:56;;;;;;;;;;;26.10;90.80;;;;;;5096446;28;19912;-48
2023/07/19 13:20:21;;;;;;;;;;;26.10;90.80;;;;;;5095890;28;19999;-48
2023/07/19 13:22:47;;;;;;;;;;;26.10;90.80;;;;;;5097808;28;20327;-45
2023/07/19 13:25:13;;;;;;;;;;;26.10;90.80;;;;;;5095153;28;19921;-48
2023/07/19 13:27:38;;;;;;;;;;;26.10;90.70;;;;;;5099959;28;19912;-47
2023/07/19 13:30:06;;;;;;;;;;;26.10;90.70;;;;;;5093386;28;19958;-50
2023/07/19 13:32:32;;;;;;;;;;;26.10;90.70;;;;;;5104399;28;19908;-47
2023/07/19 13:34:58;;;;;;;;;;;26.10;90.70;;;;;;5096318;28;19908;-48
2023/07/19 13:37:23;;;;;;;;;;;26.10;90.70;;;;;;5097429;28;19927;-47
2023/07/19 13:39:49;;;;;;;;;;;26.10;90.70;;;;;;5096550;28;19904;-48
2023/07/19 13:42:15;;;;;;;;;;;26.10;90.70;;;;;;5095312;28;19912;-45
2023/07/19 13:44:41;;;;;;;;;;;26.10;90.70;;;;;;5095186;28;19920;-45
2023/07/19 13:47:06;;;;;;;;;;;26.10;90.70;;;;;;5078355;28;19927;-48
2023/07/19 13:49:32;;;;;;;;;;;26.10;90.70;;;;;;5094761;28;19995;-49
2023/07/19 13:51:57;;;;;;;;;;;26.10;90.70;;;;;;5095050;28;20301;-47
2023/07/19 13:54:23;;;;;;;;;;;26.10;90.70;;;;;;5094026;28;19911;-48
2023/07/19 13:56:49;;;;;;;;;;;26.10;90.80;;;;;;5094209;28;19957;-45
2023/07/19 13:59:15;;;;;;;;;;;26.10;90.80;;;;;;5093897;28;19904;-48
2023/07/19 14:01:40;;;;;;;;;;;26.10;90.80;;;;;;5094265;28;20256;-50
2023/07/19 14:04:06;;;;;;;;;;;26.10;90.80;;;;;;5095775;28;19906;-46
2023/07/19 14:06:31;;;;;;;;;;;26.10;90.80;;;;;;5095582;28;19950;-47
2023/07/19 14:08:57;;;;;;;;;;;26.10;90.80;;;;;;5095897;28;20251;-47